KG-0006 weather

Tamga Airport
Tamga, Issyk Kul Region, Kyrgyzstan

Public forecast

Using degrees Celsius for public forecast. Weather courtesy of forecast.io.

METAR (pilot weather report)

Closest report is Almaty Airport, 75.6 nm (140.0 km) NNW. Retrieved 2019/03/24 10:30 UTC (2 minutes ago):

UAAA 241030Z VRB01MPS 9999 SCT046CB OVC100 10/05 Q1021 R88/2/0150 NOSIG

TAF (pilot weather forecast)

Closest forecast is Almaty Airport, 75.6 nm (140.0 km) NNW. Retrieved 2019/03/24 06:46 UTC (4 hours ago):

TAF UAAA 240500Z 2406/2506 22005MPS 3100 -SHRA BR BKN020CB OVC100 TX09/2406Z TN03/2501Z TEMPO 2406/2409 27007MPS 1700 BKN006 OVC010CB TEMPO 2409/2415 26005MPS 1000 SHRA BR BKN003 OVC010CB TEMPO 2415/2424 0500 FG VV002 BECMG 2500/2501 02003MPS 2000 BR BKN010 BKN100